sensor_id;sensor_type;location;lat;lon;timestamp;P1;durP1;ratioP1;P2;durP2;ratioP2
428;SDS011;201;48.758;9.290;2023-01-20T00:01:32;0.20;;;0.10;;
428;SDS011;201;48.758;9.290;2023-01-20T00:04:00;0.20;;;0.10;;
428;SDS011;201;48.758;9.290;2023-01-20T00:06:26;0.20;;;0.10;;
428;SDS011;201;48.758;9.290;2023-01-20T00:08:53;0.20;;;0.10;;
428;SDS011;201;48.758;9.290;2023-01-20T00:11:20;0.20;;;0.10;;
428;SDS011;201;48.758;9.290;2023-01-20T00:13:45;0.20;;;0.10;;
428;SDS011;201;48.758;9.290;2023-01-20T00:16:12;0.20;;;0.10;;
428;SDS011;201;48.758;9.290;2023-01-20T00:18:38;0.20;;;0.10;;
428;SDS011;201;48.758;9.290;2023-01-20T00:21:08;0.30;;;0.20;;
428;SDS011;201;48.758;9.290;2023-01-20T00:23:35;0.28;;;0.17;;
428;SDS011;201;48.758;9.290;2023-01-20T00:26:05;0.30;;;0.20;;
428;SDS011;201;48.758;9.290;2023-01-20T00:28:32;0.25;;;0.15;;
428;SDS011;201;48.758;9.290;2023-01-20T00:31:08;0.30;;;0.20;;
428;SDS011;201;48.758;9.290;2023-01-20T00:33:41;0.30;;;0.20;;
428;SDS011;201;48.758;9.290;2023-01-20T00:36:07;0.30;;;0.20;;
428;SDS011;201;48.758;9.290;2023-01-20T00:38:34;0.30;;;0.20;;
428;SDS011;201;48.758;9.290;2023-01-20T00:40:59;0.30;;;0.20;;
428;SDS011;201;48.758;9.290;2023-01-20T00:43:25;0.30;;;0.20;;
428;SDS011;201;48.758;9.290;2023-01-20T00:45:51;0.30;;;0.20;;
428;SDS011;201;48.758;9.290;2023-01-20T00:48:16;0.27;;;0.17;;
428;SDS011;201;48.758;9.290;2023-01-20T00:50:42;0.20;;;0.10;;
428;SDS011;201;48.758;9.290;2023-01-20T00:53:07;0.30;;;0.20;;
428;SDS011;201;48.758;9.290;2023-01-20T00:55:33;0.27;;;0.17;;
428;SDS011;201;48.758;9.290;2023-01-20T00:57:58;0.30;;;0.20;;
428;SDS011;201;48.758;9.290;2023-01-20T01:00:24;0.30;;;0.20;;
428;SDS011;201;48.758;9.290;2023-01-20T01:02:49;0.30;;;0.20;;
428;SDS011;201;48.758;9.290;2023-01-20T01:05:15;0.30;;;0.20;;
428;SDS011;201;48.758;9.290;2023-01-20T01:07:40;0.30;;;0.20;;
428;SDS011;201;48.758;9.290;2023-01-20T01:10:06;0.20;;;0.10;;
428;SDS011;201;48.758;9.290;2023-01-20T01:12:32;0.20;;;0.10;;
428;SDS011;201;48.758;9.290;2023-01-20T01:14:58;0.20;;;0.10;;
428;SDS011;201;48.758;9.290;2023-01-20T01:17:23;0.20;;;0.10;;
428;SDS011;201;48.758;9.290;2023-01-20T01:19:52;0.20;;;0.10;;
428;SDS011;201;48.758;9.290;2023-01-20T01:22:18;0.10;;;0.10;;
428;SDS011;201;48.758;9.290;2023-01-20T01:24:44;0.20;;;0.10;;
428;SDS011;201;48.758;9.290;2023-01-20T01:27:10;0.20;;;0.10;;
428;SDS011;201;48.758;9.290;2023-01-20T01:29:36;0.20;;;0.10;;
428;SDS011;201;48.758;9.290;2023-01-20T01:32:01;0.20;;;0.10;;
428;SDS011;201;48.758;9.290;2023-01-20T01:34:27;0.20;;;0.10;;
428;SDS011;201;48.758;9.290;2023-01-20T01:36:53;0.20;;;0.10;;
428;SDS011;201;48.758;9.290;2023-01-20T01:39:18;0.20;;;0.10;;
428;SDS011;201;48.758;9.290;2023-01-20T01:41:44;0.20;;;0.10;;
428;SDS011;201;48.758;9.290;2023-01-20T01:44:10;0.20;;;0.10;;
428;SDS011;201;48.758;9.290;2023-01-20T01:46:37;0.20;;;0.10;;
428;SDS011;201;48.758;9.290;2023-01-20T01:49:11;0.20;;;0.10;;
428;SDS011;201;48.758;9.290;2023-01-20T01:51:43;0.20;;;0.10;;
428;SDS011;201;48.758;9.290;2023-01-20T01:54:16;0.25;;;0.15;;
428;SDS011;201;48.758;9.290;2023-01-20T01:56:44;0.28;;;0.17;;
428;SDS011;201;48.758;9.290;2023-01-20T01:59:13;0.25;;;0.15;;
428;SDS011;201;48.758;9.290;2023-01-20T02:01:40;0.30;;;0.20;;
428;SDS011;201;48.758;9.290;2023-01-20T02:04:09;0.30;;;0.20;;
428;SDS011;201;48.758;9.290;2023-01-20T02:06:39;0.20;;;0.10;;
428;SDS011;201;48.758;9.290;2023-01-20T02:09:16;0.20;;;0.10;;
428;SDS011;201;48.758;9.290;2023-01-20T02:12:04;0.20;;;0.10;;
428;SDS011;201;48.758;9.290;2023-01-20T02:14:32;0.20;;;0.10;;
428;SDS011;201;48.758;9.290;2023-01-20T02:17:17;0.20;;;0.10;;
428;SDS011;201;48.758;9.290;2023-01-20T02:21:02;0.10;;;0.10;;
428;SDS011;201;48.758;9.290;2023-01-20T02:29:21;0.30;;;0.20;;
428;SDS011;201;48.758;9.290;2023-01-20T02:35:09;0.30;;;0.20;;
428;SDS011;201;48.758;9.290;2023-01-20T02:37:42;0.20;;;0.10;;
428;SDS011;201;48.758;9.290;2023-01-20T02:40:16;0.25;;;0.15;;
428;SDS011;201;48.758;9.290;2023-01-20T02:42:48;0.20;;;0.10;;
428;SDS011;201;48.758;9.290;2023-01-20T02:45:23;0.20;;;0.10;;
428;SDS011;201;48.758;9.290;2023-01-20T02:50:30;0.20;;;0.10;;
428;SDS011;201;48.758;9.290;2023-01-20T02:53:06;0.20;;;0.10;;
428;SDS011;201;48.758;9.290;2023-01-20T02:55:36;0.20;;;0.10;;
428;SDS011;201;48.758;9.290;2023-01-20T02:58:06;0.20;;;0.10;;
428;SDS011;201;48.758;9.290;2023-01-20T03:00:48;0.20;;;0.10;;
428;SDS011;201;48.758;9.290;2023-01-20T03:03:18;0.30;;;0.20;;
428;SDS011;201;48.758;9.290;2023-01-20T03:05:51;0.20;;;0.10;;
428;SDS011;201;48.758;9.290;2023-01-20T03:08:19;0.20;;;0.10;;
428;SDS011;201;48.758;9.290;2023-01-20T03:10:48;0.20;;;0.10;;
428;SDS011;201;48.758;9.290;2023-01-20T03:13:30;0.20;;;0.10;;
428;SDS011;201;48.758;9.290;2023-01-20T03:16:02;0.20;;;0.10;;
428;SDS011;201;48.758;9.290;2023-01-20T03:18:31;0.20;;;0.10;;
428;SDS011;201;48.758;9.290;2023-01-20T03:20:58;0.20;;;0.10;;
428;SDS011;201;48.758;9.290;2023-01-20T03:23:25;0.20;;;0.10;;
428;SDS011;201;48.758;9.290;2023-01-20T03:25:54;0.20;;;0.10;;
428;SDS011;201;48.758;9.290;2023-01-20T03:28:20;0.20;;;0.10;;
428;SDS011;201;48.758;9.290;2023-01-20T03:30:46;0.20;;;0.10;;
428;SDS011;201;48.758;9.290;2023-01-20T03:33:12;0.20;;;0.10;;
428;SDS011;201;48.758;9.290;2023-01-20T03:35:39;0.20;;;0.10;;
428;SDS011;201;48.758;9.290;2023-01-20T03:38:05;0.30;;;0.20;;
428;SDS011;201;48.758;9.290;2023-01-20T03:40:33;0.20;;;0.10;;
428;SDS011;201;48.758;9.290;2023-01-20T03:46:18;0.20;;;0.10;;
428;SDS011;201;48.758;9.290;2023-01-20T03:49:02;0.20;;;0.10;;
428;SDS011;201;48.758;9.290;2023-01-20T03:51:39;0.20;;;0.10;;
428;SDS011;201;48.758;9.290;2023-01-20T03:54:21;0.30;;;0.20;;
428;SDS011;201;48.758;9.290;2023-01-20T03:59:33;0.30;;;0.20;;
428;SDS011;201;48.758;9.290;2023-01-20T04:02:02;0.20;;;0.10;;
428;SDS011;201;48.758;9.290;2023-01-20T04:04:32;0.20;;;0.10;;
428;SDS011;201;48.758;9.290;2023-01-20T04:06:59;0.20;;;0.10;;
428;SDS011;201;48.758;9.290;2023-01-20T04:09:27;0.30;;;0.20;;
428;SDS011;201;48.758;9.290;2023-01-20T04:11:55;0.20;;;0.10;;
428;SDS011;201;48.758;9.290;2023-01-20T04:14:21;0.20;;;0.10;;
428;SDS011;201;48.758;9.290;2023-01-20T04:16:54;0.23;;;0.13;;
428;SDS011;201;48.758;9.290;2023-01-20T04:19:20;0.30;;;0.20;;
428;SDS011;201;48.758;9.290;2023-01-20T04:21:52;0.30;;;0.20;;
428;SDS011;201;48.758;9.290;2023-01-20T04:26:53;0.20;;;0.10;;
428;SDS011;201;48.758;9.290;2023-01-20T04:29:18;0.20;;;0.10;;
428;SDS011;201;48.758;9.290;2023-01-20T04:31:44;0.20;;;0.10;;
428;SDS011;201;48.758;9.290;2023-01-20T04:34:12;0.20;;;0.10;;
428;SDS011;201;48.758;9.290;2023-01-20T04:36:39;0.30;;;0.20;;
428;SDS011;201;48.758;9.290;2023-01-20T04:39:05;0.20;;;0.10;;
428;SDS011;201;48.758;9.290;2023-01-20T04:41:30;0.20;;;0.10;;
428;SDS011;201;48.758;9.290;2023-01-20T04:43:56;0.20;;;0.10;;
428;SDS011;201;48.758;9.290;2023-01-20T04:46:21;0.20;;;0.10;;
428;SDS011;201;48.758;9.290;2023-01-20T04:48:47;0.20;;;0.10;;
428;SDS011;201;48.758;9.290;2023-01-20T04:51:13;0.20;;;0.10;;
428;SDS011;201;48.758;9.290;2023-01-20T04:53:39;0.20;;;0.10;;
428;SDS011;201;48.758;9.290;2023-01-20T04:56:09;0.30;;;0.20;;
428;SDS011;201;48.758;9.290;2023-01-20T04:58:39;0.22;;;0.13;;
428;SDS011;201;48.758;9.290;2023-01-20T05:01:05;0.20;;;0.10;;
428;SDS011;201;48.758;9.290;2023-01-20T05:03:30;0.20;;;0.10;;
428;SDS011;201;48.758;9.290;2023-01-20T05:05:56;0.20;;;0.10;;
428;SDS011;201;48.758;9.290;2023-01-20T05:08:22;0.20;;;0.10;;
428;SDS011;201;48.758;9.290;2023-01-20T05:10:47;0.20;;;0.10;;
428;SDS011;201;48.758;9.290;2023-01-20T05:13:13;0.20;;;0.10;;
428;SDS011;201;48.758;9.290;2023-01-20T05:15:39;0.20;;;0.10;;
428;SDS011;201;48.758;9.290;2023-01-20T05:18:04;0.28;;;0.17;;
428;SDS011;201;48.758;9.290;2023-01-20T05:20:30;0.20;;;0.10;;
428;SDS011;201;48.758;9.290;2023-01-20T05:22:56;0.20;;;0.10;;
428;SDS011;201;48.758;9.290;2023-01-20T05:25:22;0.20;;;0.10;;
428;SDS011;201;48.758;9.290;2023-01-20T05:27:48;0.20;;;0.10;;
428;SDS011;201;48.758;9.290;2023-01-20T05:30:13;0.20;;;0.10;;
428;SDS011;201;48.758;9.290;2023-01-20T05:32:39;0.20;;;0.10;;
428;SDS011;201;48.758;9.290;2023-01-20T05:35:05;0.20;;;0.10;;
428;SDS011;201;48.758;9.290;2023-01-20T05:37:31;0.20;;;0.10;;
428;SDS011;201;48.758;9.290;2023-01-20T05:39:56;0.20;;;0.10;;
428;SDS011;201;48.758;9.290;2023-01-20T05:42:22;0.20;;;0.10;;
428;SDS011;201;48.758;9.290;2023-01-20T05:44:47;0.20;;;0.10;;
428;SDS011;201;48.758;9.290;2023-01-20T05:47:13;0.30;;;0.20;;
428;SDS011;201;48.758;9.290;2023-01-20T05:49:39;0.20;;;0.10;;
428;SDS011;201;48.758;9.290;2023-01-20T05:52:04;0.20;;;0.10;;
428;SDS011;201;48.758;9.290;2023-01-20T05:54:30;0.30;;;0.20;;
428;SDS011;201;48.758;9.290;2023-01-20T05:56:55;0.20;;;0.10;;
428;SDS011;201;48.758;9.290;2023-01-20T05:59:21;0.20;;;0.10;;
428;SDS011;201;48.758;9.290;2023-01-20T06:01:47;0.20;;;0.10;;
428;SDS011;201;48.758;9.290;2023-01-20T06:04:13;0.30;;;0.20;;
428;SDS011;201;48.758;9.290;2023-01-20T06:06:38;0.30;;;0.20;;
428;SDS011;201;48.758;9.290;2023-01-20T06:09:04;0.17;;;0.10;;
428;SDS011;201;48.758;9.290;2023-01-20T06:11:30;0.20;;;0.10;;
428;SDS011;201;48.758;9.290;2023-01-20T06:13:56;0.20;;;0.10;;
428;SDS011;201;48.758;9.290;2023-01-20T06:16:22;0.20;;;0.10;;
428;SDS011;201;48.758;9.290;2023-01-20T06:18:47;0.30;;;0.20;;
428;SDS011;201;48.758;9.290;2023-01-20T06:21:13;0.20;;;0.10;;
428;SDS011;201;48.758;9.290;2023-01-20T06:23:38;0.30;;;0.20;;
428;SDS011;201;48.758;9.290;2023-01-20T06:26:05;0.30;;;0.20;;
428;SDS011;201;48.758;9.290;2023-01-20T06:28:32;0.30;;;0.20;;
428;SDS011;201;48.758;9.290;2023-01-20T06:30:59;0.20;;;0.10;;
428;SDS011;201;48.758;9.290;2023-01-20T06:33:25;0.20;;;0.10;;
428;SDS011;201;48.758;9.290;2023-01-20T06:35:54;0.20;;;0.10;;
428;SDS011;201;48.758;9.290;2023-01-20T06:38:21;0.20;;;0.10;;
428;SDS011;201;48.758;9.290;2023-01-20T06:40:47;0.30;;;0.20;;
428;SDS011;201;48.758;9.290;2023-01-20T06:43:12;0.20;;;0.10;;
428;SDS011;201;48.758;9.290;2023-01-20T06:45:38;0.20;;;0.10;;
428;SDS011;201;48.758;9.290;2023-01-20T06:48:03;0.20;;;0.10;;
428;SDS011;201;48.758;9.290;2023-01-20T06:50:29;0.20;;;0.10;;
428;SDS011;201;48.758;9.290;2023-01-20T06:52:55;0.20;;;0.10;;
428;SDS011;201;48.758;9.290;2023-01-20T06:55:20;0.10;;;0.10;;
428;SDS011;201;48.758;9.290;2023-01-20T06:57:46;0.20;;;0.10;;
428;SDS011;201;48.758;9.290;2023-01-20T07:00:12;0.20;;;0.10;;
428;SDS011;201;48.758;9.290;2023-01-20T07:02:38;0.30;;;0.20;;
428;SDS011;201;48.758;9.290;2023-01-20T07:05:03;0.20;;;0.10;;
428;SDS011;201;48.758;9.290;2023-01-20T07:07:32;0.20;;;0.10;;
428;SDS011;201;48.758;9.290;2023-01-20T07:09:58;0.20;;;0.10;;
428;SDS011;201;48.758;9.290;2023-01-20T07:12:24;0.20;;;0.10;;
428;SDS011;201;48.758;9.290;2023-01-20T07:14:49;0.20;;;0.10;;
428;SDS011;201;48.758;9.290;2023-01-20T07:17:15;0.20;;;0.10;;
428;SDS011;201;48.758;9.290;2023-01-20T07:19:40;0.20;;;0.10;;
428;SDS011;201;48.758;9.290;2023-01-20T07:22:06;0.20;;;0.10;;
428;SDS011;201;48.758;9.290;2023-01-20T07:24:32;0.20;;;0.10;;
428;SDS011;201;48.758;9.290;2023-01-20T07:26:57;0.20;;;0.10;;
428;SDS011;201;48.758;9.290;2023-01-20T07:29:23;0.20;;;0.10;;
428;SDS011;201;48.758;9.290;2023-01-20T07:31:48;0.20;;;0.10;;
428;SDS011;201;48.758;9.290;2023-01-20T07:34:14;0.20;;;0.10;;
428;SDS011;201;48.758;9.290;2023-01-20T07:36:39;0.30;;;0.20;;
428;SDS011;201;48.758;9.290;2023-01-20T07:39:05;0.20;;;0.10;;
428;SDS011;201;48.758;9.290;2023-01-20T07:41:30;0.30;;;0.20;;
428;SDS011;201;48.758;9.290;2023-01-20T07:43:56;0.20;;;0.10;;
428;SDS011;201;48.758;9.290;2023-01-20T07:46:21;0.20;;;0.10;;
428;SDS011;201;48.758;9.290;2023-01-20T07:48:47;0.20;;;0.10;;
428;SDS011;201;48.758;9.290;2023-01-20T07:51:13;0.20;;;0.10;;
428;SDS011;201;48.758;9.290;2023-01-20T07:53:40;0.15;;;0.08;;
428;SDS011;201;48.758;9.290;2023-01-20T07:56:13;0.10;;;0.10;;
428;SDS011;201;48.758;9.290;2023-01-20T07:58:40;0.20;;;0.10;;
428;SDS011;201;48.758;9.290;2023-01-20T08:01:11;0.20;;;0.10;;
428;SDS011;201;48.758;9.290;2023-01-20T08:03:39;0.20;;;0.10;;
428;SDS011;201;48.758;9.290;2023-01-20T08:06:05;0.20;;;0.10;;
428;SDS011;201;48.758;9.290;2023-01-20T08:08:32;0.20;;;0.10;;
428;SDS011;201;48.758;9.290;2023-01-20T08:10:59;0.20;;;0.10;;
428;SDS011;201;48.758;9.290;2023-01-20T08:13:26;0.20;;;0.10;;
428;SDS011;201;48.758;9.290;2023-01-20T08:15:52;0.20;;;0.10;;
428;SDS011;201;48.758;9.290;2023-01-20T08:18:18;0.20;;;0.10;;
428;SDS011;201;48.758;9.290;2023-01-20T08:20:44;0.00;;;0.00;;
428;SDS011;201;48.758;9.290;2023-01-20T08:23:09;0.00;;;0.00;;
428;SDS011;201;48.758;9.290;2023-01-20T08:25:35;0.20;;;0.10;;
428;SDS011;201;48.758;9.290;2023-01-20T08:28:00;0.20;;;0.10;;
428;SDS011;201;48.758;9.290;2023-01-20T08:30:26;0.20;;;0.10;;
428;SDS011;201;48.758;9.290;2023-01-20T08:32:51;0.20;;;0.10;;
428;SDS011;201;48.758;9.290;2023-01-20T08:35:17;0.20;;;0.10;;
428;SDS011;201;48.758;9.290;2023-01-20T08:37:42;0.20;;;0.10;;
428;SDS011;201;48.758;9.290;2023-01-20T08:40:08;0.27;;;0.17;;
428;SDS011;201;48.758;9.290;2023-01-20T08:42:35;0.20;;;0.10;;
428;SDS011;201;48.758;9.290;2023-01-20T08:45:07;0.20;;;0.10;;
428;SDS011;201;48.758;9.290;2023-01-20T08:47:36;0.20;;;0.10;;
428;SDS011;201;48.758;9.290;2023-01-20T08:50:03;0.20;;;0.10;;
428;SDS011;201;48.758;9.290;2023-01-20T08:52:30;0.20;;;0.10;;
428;SDS011;201;48.758;9.290;2023-01-20T08:54:56;0.20;;;0.10;;
428;SDS011;201;48.758;9.290;2023-01-20T08:57:25;0.20;;;0.10;;
428;SDS011;201;48.758;9.290;2023-01-20T08:59:51;0.20;;;0.10;;
428;SDS011;201;48.758;9.290;2023-01-20T09:02:17;0.30;;;0.20;;
428;SDS011;201;48.758;9.290;2023-01-20T09:04:43;0.20;;;0.10;;
428;SDS011;201;48.758;9.290;2023-01-20T09:07:09;0.20;;;0.10;;
428;SDS011;201;48.758;9.290;2023-01-20T09:09:36;0.20;;;0.10;;
428;SDS011;201;48.758;9.290;2023-01-20T09:12:03;0.15;;;0.08;;
428;SDS011;201;48.758;9.290;2023-01-20T09:14:29;0.20;;;0.10;;
428;SDS011;201;48.758;9.290;2023-01-20T09:16:55;0.20;;;0.10;;
428;SDS011;201;48.758;9.290;2023-01-20T09:19:20;0.20;;;0.10;;
428;SDS011;201;48.758;9.290;2023-01-20T09:21:46;0.20;;;0.10;;
428;SDS011;201;48.758;9.290;2023-01-20T09:24:12;0.20;;;0.10;;
428;SDS011;201;48.758;9.290;2023-01-20T09:26:37;0.00;;;0.00;;
428;SDS011;201;48.758;9.290;2023-01-20T09:29:10;0.20;;;0.10;;
428;SDS011;201;48.758;9.290;2023-01-20T09:31:39;0.07;;;0.03;;
428;SDS011;201;48.758;9.290;2023-01-20T09:34:07;0.00;;;0.00;;
428;SDS011;201;48.758;9.290;2023-01-20T09:36:34;0.00;;;0.00;;
428;SDS011;201;48.758;9.290;2023-01-20T09:38:59;0.00;;;0.00;;
428;SDS011;201;48.758;9.290;2023-01-20T09:41:46;0.00;;;0.00;;
428;SDS011;201;48.758;9.290;2023-01-20T09:44:51;0.00;;;0.00;;
428;SDS011;201;48.758;9.290;2023-01-20T09:47:30;0.00;;;0.00;;
428;SDS011;201;48.758;9.290;2023-01-20T09:50:16;0.00;;;0.00;;
428;SDS011;201;48.758;9.290;2023-01-20T09:56:15;0.00;;;0.00;;
428;SDS011;201;48.758;9.290;2023-01-20T09:59:00;0.00;;;0.00;;
428;SDS011;201;48.758;9.290;2023-01-20T10:06:53;0.00;;;0.00;;
428;SDS011;201;48.758;9.290;2023-01-20T10:09:29;0.00;;;0.00;;
428;SDS011;201;48.758;9.290;2023-01-20T10:11:59;0.00;;;0.00;;
428;SDS011;201;48.758;9.290;2023-01-20T10:14:32;0.00;;;0.00;;
428;SDS011;201;48.758;9.290;2023-01-20T10:19:41;0.00;;;0.00;;
428;SDS011;201;48.758;9.290;2023-01-20T10:22:28;0.00;;;0.00;;
428;SDS011;201;48.758;9.290;2023-01-20T10:27:54;0.00;;;0.00;;
428;SDS011;201;48.758;9.290;2023-01-20T10:30:31;0.00;;;0.00;;
428;SDS011;201;48.758;9.290;2023-01-20T10:33:01;0.00;;;0.00;;
428;SDS011;201;48.758;9.290;2023-01-20T10:35:34;0.00;;;0.00;;
428;SDS011;201;48.758;9.290;2023-01-20T10:38:29;0.00;;;0.00;;
428;SDS011;201;48.758;9.290;2023-01-20T10:41:12;0.00;;;0.00;;
428;SDS011;201;48.758;9.290;2023-01-20T10:43:51;0.00;;;0.00;;
428;SDS011;201;48.758;9.290;2023-01-20T10:51:48;0.00;;;0.00;;
428;SDS011;201;48.758;9.290;2023-01-20T10:57:15;0.00;;;0.00;;
428;SDS011;201;48.758;9.290;2023-01-20T10:59:42;0.00;;;0.00;;
428;SDS011;201;48.758;9.290;2023-01-20T11:04:42;0.00;;;0.00;;
428;SDS011;201;48.758;9.290;2023-01-20T11:07:14;0.00;;;0.00;;
428;SDS011;201;48.758;9.290;2023-01-20T11:09:41;0.00;;;0.00;;
428;SDS011;201;48.758;9.290;2023-01-20T11:12:14;0.07;;;0.00;;
428;SDS011;201;48.758;9.290;2023-01-20T11:14:42;0.00;;;0.00;;
428;SDS011;201;48.758;9.290;2023-01-20T11:17:12;0.00;;;0.00;;
428;SDS011;201;48.758;9.290;2023-01-20T11:19:52;0.00;;;0.00;;
428;SDS011;201;48.758;9.290;2023-01-20T11:22:23;0.00;;;0.00;;
428;SDS011;201;48.758;9.290;2023-01-20T11:24:52;0.00;;;0.00;;
428;SDS011;201;48.758;9.290;2023-01-20T11:27:21;0.00;;;0.00;;
428;SDS011;201;48.758;9.290;2023-01-20T11:29:50;0.00;;;0.00;;
428;SDS011;201;48.758;9.290;2023-01-20T11:32:31;0.00;;;0.00;;
428;SDS011;201;48.758;9.290;2023-01-20T11:34:59;0.00;;;0.00;;
428;SDS011;201;48.758;9.290;2023-01-20T11:37:36;0.00;;;0.00;;
428;SDS011;201;48.758;9.290;2023-01-20T11:40:24;0.00;;;0.00;;
428;SDS011;201;48.758;9.290;2023-01-20T11:42:50;0.00;;;0.00;;
428;SDS011;201;48.758;9.290;2023-01-20T11:45:21;0.00;;;0.00;;
428;SDS011;201;48.758;9.290;2023-01-20T11:47:57;0.00;;;0.00;;
428;SDS011;201;48.758;9.290;2023-01-20T11:53:11;0.00;;;0.00;;
428;SDS011;201;48.758;9.290;2023-01-20T11:55:47;0.00;;;0.00;;
428;SDS011;201;48.758;9.290;2023-01-20T11:58:20;0.00;;;0.00;;
428;SDS011;201;48.758;9.290;2023-01-20T12:00:51;0.00;;;0.00;;
428;SDS011;201;48.758;9.290;2023-01-20T12:03:27;0.00;;;0.00;;
428;SDS011;201;48.758;9.290;2023-01-20T12:08:54;0.00;;;0.00;;
428;SDS011;201;48.758;9.290;2023-01-20T12:11:27;0.00;;;0.00;;
428;SDS011;201;48.758;9.290;2023-01-20T12:16:48;0.00;;;0.00;;
428;SDS011;201;48.758;9.290;2023-01-20T12:19:36;0.00;;;0.00;;
428;SDS011;201;48.758;9.290;2023-01-20T12:22:08;0.00;;;0.00;;
428;SDS011;201;48.758;9.290;2023-01-20T12:24:49;0.00;;;0.00;;
428;SDS011;201;48.758;9.290;2023-01-20T12:27:31;0.00;;;0.00;;
428;SDS011;201;48.758;9.290;2023-01-20T12:30:00;0.00;;;0.00;;
428;SDS011;201;48.758;9.290;2023-01-20T12:32:29;0.00;;;0.00;;
428;SDS011;201;48.758;9.290;2023-01-20T12:34:57;0.00;;;0.00;;
428;SDS011;201;48.758;9.290;2023-01-20T12:37:27;0.00;;;0.00;;
428;SDS011;201;48.758;9.290;2023-01-20T12:45:33;0.00;;;0.00;;
428;SDS011;201;48.758;9.290;2023-01-20T12:48:14;0.00;;;0.00;;
428;SDS011;201;48.758;9.290;2023-01-20T12:53:44;0.00;;;0.00;;
428;SDS011;201;48.758;9.290;2023-01-20T12:56:33;0.00;;;0.00;;
428;SDS011;201;48.758;9.290;2023-01-20T12:59:27;0.00;;;0.00;;
428;SDS011;201;48.758;9.290;2023-01-20T13:02:07;0.00;;;0.00;;
428;SDS011;201;48.758;9.290;2023-01-20T13:04:57;0.00;;;0.00;;
428;SDS011;201;48.758;9.290;2023-01-20T13:10:27;0.00;;;0.00;;
428;SDS011;201;48.758;9.290;2023-01-20T13:13:16;0.00;;;0.00;;
428;SDS011;201;48.758;9.290;2023-01-20T13:15:56;0.00;;;0.00;;
428;SDS011;201;48.758;9.290;2023-01-20T13:21:16;0.00;;;0.00;;
428;SDS011;201;48.758;9.290;2023-01-20T13:23:45;0.00;;;0.00;;
428;SDS011;201;48.758;9.290;2023-01-20T13:26:12;0.00;;;0.00;;
428;SDS011;201;48.758;9.290;2023-01-20T13:28:49;0.00;;;0.00;;
428;SDS011;201;48.758;9.290;2023-01-20T13:37:12;0.00;;;0.00;;
428;SDS011;201;48.758;9.290;2023-01-20T13:39:49;0.00;;;0.00;;
428;SDS011;201;48.758;9.290;2023-01-20T13:43:01;0.00;;;0.00;;
428;SDS011;201;48.758;9.290;2023-01-20T13:58:15;0.00;;;0.00;;
428;SDS011;201;48.758;9.290;2023-01-20T14:00:42;0.00;;;0.00;;
428;SDS011;201;48.758;9.290;2023-01-20T14:03:16;0.00;;;0.00;;
428;SDS011;201;48.758;9.290;2023-01-20T14:08:22;0.00;;;0.00;;
428;SDS011;201;48.758;9.290;2023-01-20T14:10:49;0.00;;;0.00;;
428;SDS011;201;48.758;9.290;2023-01-20T14:13:22;0.00;;;0.00;;
428;SDS011;201;48.758;9.290;2023-01-20T14:15:53;0.00;;;0.00;;
428;SDS011;201;48.758;9.290;2023-01-20T14:18:20;0.00;;;0.00;;
428;SDS011;201;48.758;9.290;2023-01-20T14:21:01;0.00;;;0.00;;
428;SDS011;201;48.758;9.290;2023-01-20T14:23:30;0.00;;;0.00;;
428;SDS011;201;48.758;9.290;2023-01-20T14:28:24;0.00;;;0.00;;
428;SDS011;201;48.758;9.290;2023-01-20T14:31:03;0.00;;;0.00;;
428;SDS011;201;48.758;9.290;2023-01-20T14:33:46;0.00;;;0.00;;
428;SDS011;201;48.758;9.290;2023-01-20T14:36:18;0.00;;;0.00;;
428;SDS011;201;48.758;9.290;2023-01-20T14:38:50;0.00;;;0.00;;
428;SDS011;201;48.758;9.290;2023-01-20T14:43:55;0.00;;;0.00;;
428;SDS011;201;48.758;9.290;2023-01-20T14:46:22;0.00;;;0.00;;
428;SDS011;201;48.758;9.290;2023-01-20T14:48:49;0.00;;;0.00;;
428;SDS011;201;48.758;9.290;2023-01-20T14:51:17;0.00;;;0.00;;
428;SDS011;201;48.758;9.290;2023-01-20T14:53:42;0.00;;;0.00;;
428;SDS011;201;48.758;9.290;2023-01-20T14:56:18;0.00;;;0.00;;
428;SDS011;201;48.758;9.290;2023-01-20T14:58:45;0.00;;;0.00;;
428;SDS011;201;48.758;9.290;2023-01-20T15:01:22;0.00;;;0.00;;
428;SDS011;201;48.758;9.290;2023-01-20T15:03:56;0.00;;;0.00;;
428;SDS011;201;48.758;9.290;2023-01-20T15:06:24;0.00;;;0.00;;
428;SDS011;201;48.758;9.290;2023-01-20T15:08:51;0.00;;;0.00;;
428;SDS011;201;48.758;9.290;2023-01-20T15:11:19;0.00;;;0.00;;
428;SDS011;201;48.758;9.290;2023-01-20T15:16:18;0.00;;;0.00;;
428;SDS011;201;48.758;9.290;2023-01-20T15:21:40;0.20;;;0.10;;
428;SDS011;201;48.758;9.290;2023-01-20T15:24:11;0.05;;;0.03;;
428;SDS011;201;48.758;9.290;2023-01-20T15:26:39;0.00;;;0.00;;
428;SDS011;201;48.758;9.290;2023-01-20T15:29:22;0.00;;;0.00;;
428;SDS011;201;48.758;9.290;2023-01-20T15:31:55;0.00;;;0.00;;
428;SDS011;201;48.758;9.290;2023-01-20T15:34:22;0.15;;;0.08;;
428;SDS011;201;48.758;9.290;2023-01-20T15:36:50;0.00;;;0.00;;
428;SDS011;201;48.758;9.290;2023-01-20T15:39:17;0.10;;;0.05;;
428;SDS011;201;48.758;9.290;2023-01-20T15:41:47;0.10;;;0.05;;
428;SDS011;201;48.758;9.290;2023-01-20T15:44:20;0.00;;;0.00;;
428;SDS011;201;48.758;9.290;2023-01-20T15:46:46;0.00;;;0.00;;
428;SDS011;201;48.758;9.290;2023-01-20T15:49:14;0.00;;;0.00;;
428;SDS011;201;48.758;9.290;2023-01-20T15:51:40;0.20;;;0.10;;
428;SDS011;201;48.758;9.290;2023-01-20T15:54:06;0.22;;;0.13;;
428;SDS011;201;48.758;9.290;2023-01-20T15:56:33;0.20;;;0.10;;
428;SDS011;201;48.758;9.290;2023-01-20T15:58:59;0.30;;;0.20;;
428;SDS011;201;48.758;9.290;2023-01-20T16:01:25;0.20;;;0.10;;
428;SDS011;201;48.758;9.290;2023-01-20T16:03:53;0.30;;;0.20;;
428;SDS011;201;48.758;9.290;2023-01-20T16:06:28;0.30;;;0.20;;
428;SDS011;201;48.758;9.290;2023-01-20T16:08:55;0.30;;;0.20;;
428;SDS011;201;48.758;9.290;2023-01-20T16:11:21;0.20;;;0.10;;
428;SDS011;201;48.758;9.290;2023-01-20T16:13:46;0.30;;;0.20;;
428;SDS011;201;48.758;9.290;2023-01-20T16:16:13;0.20;;;0.10;;
428;SDS011;201;48.758;9.290;2023-01-20T16:18:40;0.20;;;0.10;;
428;SDS011;201;48.758;9.290;2023-01-20T16:21:06;0.30;;;0.20;;
428;SDS011;201;48.758;9.290;2023-01-20T16:23:34;0.20;;;0.10;;
428;SDS011;201;48.758;9.290;2023-01-20T16:25:59;0.20;;;0.10;;
428;SDS011;201;48.758;9.290;2023-01-20T16:28:25;0.30;;;0.20;;
428;SDS011;201;48.758;9.290;2023-01-20T16:30:51;0.30;;;0.20;;
428;SDS011;201;48.758;9.290;2023-01-20T16:33:22;0.30;;;0.20;;
428;SDS011;201;48.758;9.290;2023-01-20T16:35:50;0.30;;;0.20;;
428;SDS011;201;48.758;9.290;2023-01-20T16:38:18;0.20;;;0.10;;
428;SDS011;201;48.758;9.290;2023-01-20T16:40:49;0.20;;;0.10;;
428;SDS011;201;48.758;9.290;2023-01-20T16:43:28;0.30;;;0.20;;
428;SDS011;201;48.758;9.290;2023-01-20T16:45:54;0.30;;;0.20;;
428;SDS011;201;48.758;9.290;2023-01-20T16:48:20;0.20;;;0.10;;
428;SDS011;201;48.758;9.290;2023-01-20T16:50:47;0.25;;;0.15;;
428;SDS011;201;48.758;9.290;2023-01-20T16:53:17;0.20;;;0.10;;
428;SDS011;201;48.758;9.290;2023-01-20T16:55:44;0.30;;;0.20;;
428;SDS011;201;48.758;9.290;2023-01-20T16:58:11;0.30;;;0.20;;
428;SDS011;201;48.758;9.290;2023-01-20T17:00:38;0.20;;;0.10;;
428;SDS011;201;48.758;9.290;2023-01-20T17:03:04;0.20;;;0.10;;
428;SDS011;201;48.758;9.290;2023-01-20T17:05:30;0.30;;;0.20;;
428;SDS011;201;48.758;9.290;2023-01-20T17:07:56;0.30;;;0.20;;
428;SDS011;201;48.758;9.290;2023-01-20T17:10:22;0.40;;;0.30;;
428;SDS011;201;48.758;9.290;2023-01-20T17:15:56;0.40;;;0.30;;
428;SDS011;201;48.758;9.290;2023-01-20T17:18:23;0.40;;;0.30;;
428;SDS011;201;48.758;9.290;2023-01-20T17:20:48;0.40;;;0.30;;
428;SDS011;201;48.758;9.290;2023-01-20T17:23:14;0.30;;;0.20;;
428;SDS011;201;48.758;9.290;2023-01-20T17:25:39;0.30;;;0.20;;
428;SDS011;201;48.758;9.290;2023-01-20T17:28:05;0.57;;;0.47;;
428;SDS011;201;48.758;9.290;2023-01-20T17:30:30;0.40;;;0.30;;
428;SDS011;201;48.758;9.290;2023-01-20T17:32:56;0.40;;;0.30;;
428;SDS011;201;48.758;9.290;2023-01-20T17:35:21;0.40;;;0.30;;
428;SDS011;201;48.758;9.290;2023-01-20T17:37:47;0.20;;;0.10;;
428;SDS011;201;48.758;9.290;2023-01-20T17:40:12;0.30;;;0.20;;
428;SDS011;201;48.758;9.290;2023-01-20T17:42:39;0.30;;;0.20;;